Terminal Aerodrome Forecast
Issued by NWS

Home | Current Version | Previous Version | Text Only | Print | Product List | Glossary Off
Versions: 1 2 3 4 5 6 7 8 9 10 11 12 13 14 15 16

000
FTUS43 KMPX 261720
TAFRWF
TAF
KRWF 261720Z 2618/2718 22010KT P6SM SCT250
     FM270100 18006KT P6SM SCT150 BKN250
     FM271200 24005KT P6SM VCSH SCT040 BKN100 PROB30 2712/2716 4SM
      -TSRA BKN040CB=

USA.gov is the U.S. government's official web portal to all federal, state and local government web resources and services.